sensor_id;sensor_type;location;lat;lon;timestamp;P1;durP1;ratioP1;P2;durP2;ratioP2
77597;SDS011;66756;42.774;23.354;2023-06-05T00:01:11;5.97;;;3.28;;
77597;SDS011;66756;42.774;23.354;2023-06-05T00:03:37;4.75;;;4.15;;
77597;SDS011;66756;42.774;23.354;2023-06-05T00:06:04;5.80;;;4.03;;
77597;SDS011;66756;42.774;23.354;2023-06-05T00:08:31;7.30;;;4.63;;
77597;SDS011;66756;42.774;23.354;2023-06-05T00:10:57;6.03;;;4.15;;
77597;SDS011;66756;42.774;23.354;2023-06-05T00:13:23;7.38;;;4.68;;
77597;SDS011;66756;42.774;23.354;2023-06-05T00:15:49;8.48;;;4.97;;
77597;SDS011;66756;42.774;23.354;2023-06-05T00:18:16;5.82;;;4.15;;
77597;SDS011;66756;42.774;23.354;2023-06-05T00:20:43;9.95;;;4.35;;
77597;SDS011;66756;42.774;23.354;2023-06-05T00:23:09;6.30;;;3.65;;
77597;SDS011;66756;42.774;23.354;2023-06-05T00:25:38;6.45;;;4.28;;
77597;SDS011;66756;42.774;23.354;2023-06-05T00:28:04;7.30;;;5.20;;
77597;SDS011;66756;42.774;23.354;2023-06-05T00:30:30;9.00;;;3.03;;
77597;SDS011;66756;42.774;23.354;2023-06-05T00:32:56;6.63;;;4.95;;
77597;SDS011;66756;42.774;23.354;2023-06-05T00:35:22;7.25;;;4.93;;
77597;SDS011;66756;42.774;23.354;2023-06-05T00:37:48;8.05;;;4.43;;
77597;SDS011;66756;42.774;23.354;2023-06-05T00:40:14;5.78;;;3.67;;
77597;SDS011;66756;42.774;23.354;2023-06-05T00:42:40;6.20;;;4.20;;
77597;SDS011;66756;42.774;23.354;2023-06-05T00:45:06;7.13;;;3.85;;
77597;SDS011;66756;42.774;23.354;2023-06-05T00:47:32;5.22;;;3.40;;
77597;SDS011;66756;42.774;23.354;2023-06-05T00:50:00;4.32;;;3.53;;
77597;SDS011;66756;42.774;23.354;2023-06-05T00:52:26;5.88;;;4.30;;
77597;SDS011;66756;42.774;23.354;2023-06-05T00:54:52;6.70;;;4.50;;
77597;SDS011;66756;42.774;23.354;2023-06-05T00:57:18;5.35;;;4.43;;
77597;SDS011;66756;42.774;23.354;2023-06-05T00:59:45;8.07;;;4.82;;
77597;SDS011;66756;42.774;23.354;2023-06-05T01:02:12;7.20;;;4.88;;
77597;SDS011;66756;42.774;23.354;2023-06-05T01:04:39;6.82;;;4.57;;
77597;SDS011;66756;42.774;23.354;2023-06-05T01:07:11;7.80;;;3.83;;
77597;SDS011;66756;42.774;23.354;2023-06-05T01:09:39;8.30;;;4.68;;
77597;SDS011;66756;42.774;23.354;2023-06-05T01:12:14;7.93;;;5.70;;
77597;SDS011;66756;42.774;23.354;2023-06-05T01:14:42;6.50;;;4.80;;
77597;SDS011;66756;42.774;23.354;2023-06-05T01:17:10;6.00;;;4.55;;
77597;SDS011;66756;42.774;23.354;2023-06-05T01:19:37;7.82;;;5.30;;
77597;SDS011;66756;42.774;23.354;2023-06-05T01:22:04;9.85;;;4.15;;
77597;SDS011;66756;42.774;23.354;2023-06-05T01:24:30;10.07;;;4.18;;
77597;SDS011;66756;42.774;23.354;2023-06-05T01:31:57;8.02;;;4.47;;
77597;SDS011;66756;42.774;23.354;2023-06-05T01:34:25;7.85;;;4.50;;
77597;SDS011;66756;42.774;23.354;2023-06-05T01:36:52;7.40;;;4.63;;
77597;SDS011;66756;42.774;23.354;2023-06-05T01:39:18;7.75;;;5.43;;
77597;SDS011;66756;42.774;23.354;2023-06-05T01:41:44;6.93;;;3.30;;
77597;SDS011;66756;42.774;23.354;2023-06-05T01:44:11;8.90;;;4.18;;
77597;SDS011;66756;42.774;23.354;2023-06-05T01:46:40;7.30;;;4.20;;
77597;SDS011;66756;42.774;23.354;2023-06-05T01:49:07;6.93;;;4.82;;
77597;SDS011;66756;42.774;23.354;2023-06-05T01:51:33;7.32;;;5.30;;
77597;SDS011;66756;42.774;23.354;2023-06-05T01:54:00;8.18;;;4.57;;
77597;SDS011;66756;42.774;23.354;2023-06-05T01:56:26;6.55;;;4.40;;
77597;SDS011;66756;42.774;23.354;2023-06-05T01:58:55;5.55;;;4.63;;
77597;SDS011;66756;42.774;23.354;2023-06-05T02:01:21;7.43;;;4.85;;
77597;SDS011;66756;42.774;23.354;2023-06-05T02:03:48;6.30;;;3.55;;
77597;SDS011;66756;42.774;23.354;2023-06-05T02:06:16;9.50;;;6.68;;
77597;SDS011;66756;42.774;23.354;2023-06-05T02:08:42;11.27;;;5.68;;
77597;SDS011;66756;42.774;23.354;2023-06-05T02:11:09;10.32;;;6.03;;
77597;SDS011;66756;42.774;23.354;2023-06-05T02:13:38;12.35;;;7.18;;
77597;SDS011;66756;42.774;23.354;2023-06-05T02:16:09;13.68;;;6.18;;
77597;SDS011;66756;42.774;23.354;2023-06-05T02:18:35;8.18;;;6.00;;
77597;SDS011;66756;42.774;23.354;2023-06-05T02:21:04;9.93;;;6.65;;
77597;SDS011;66756;42.774;23.354;2023-06-05T02:23:30;9.32;;;7.20;;
77597;SDS011;66756;42.774;23.354;2023-06-05T02:25:57;9.40;;;5.28;;
77597;SDS011;66756;42.774;23.354;2023-06-05T02:28:23;8.48;;;6.82;;
77597;SDS011;66756;42.774;23.354;2023-06-05T02:30:49;10.20;;;5.50;;
77597;SDS011;66756;42.774;23.354;2023-06-05T02:33:15;9.52;;;7.60;;
77597;SDS011;66756;42.774;23.354;2023-06-05T02:35:41;10.50;;;4.70;;
77597;SDS011;66756;42.774;23.354;2023-06-05T02:38:07;9.80;;;6.50;;
77597;SDS011;66756;42.774;23.354;2023-06-05T02:40:35;9.77;;;5.35;;
77597;SDS011;66756;42.774;23.354;2023-06-05T02:43:01;11.65;;;6.60;;
77597;SDS011;66756;42.774;23.354;2023-06-05T02:45:28;8.73;;;6.75;;
77597;SDS011;66756;42.774;23.354;2023-06-05T02:47:54;10.30;;;5.95;;
77597;SDS011;66756;42.774;23.354;2023-06-05T02:50:20;11.15;;;6.45;;
77597;SDS011;66756;42.774;23.354;2023-06-05T02:52:47;11.07;;;5.85;;
77597;SDS011;66756;42.774;23.354;2023-06-05T02:55:13;8.45;;;6.15;;
77597;SDS011;66756;42.774;23.354;2023-06-05T02:57:39;11.77;;;6.68;;
77597;SDS011;66756;42.774;23.354;2023-06-05T03:00:08;12.57;;;6.15;;
77597;SDS011;66756;42.774;23.354;2023-06-05T03:02:35;7.20;;;5.93;;
77597;SDS011;66756;42.774;23.354;2023-06-05T03:05:04;8.80;;;5.65;;
77597;SDS011;66756;42.774;23.354;2023-06-05T03:07:30;7.80;;;5.97;;
77597;SDS011;66756;42.774;23.354;2023-06-05T03:09:59;12.52;;;4.07;;
77597;SDS011;66756;42.774;23.354;2023-06-05T03:12:25;8.93;;;5.85;;
77597;SDS011;66756;42.774;23.354;2023-06-05T03:14:51;11.20;;;5.88;;
77597;SDS011;66756;42.774;23.354;2023-06-05T03:17:17;8.73;;;5.40;;
77597;SDS011;66756;42.774;23.354;2023-06-05T03:19:43;8.70;;;5.78;;
77597;SDS011;66756;42.774;23.354;2023-06-05T03:22:09;8.35;;;4.90;;
77597;SDS011;66756;42.774;23.354;2023-06-05T03:24:35;8.00;;;4.78;;
77597;SDS011;66756;42.774;23.354;2023-06-05T03:27:02;10.85;;;5.55;;
77597;SDS011;66756;42.774;23.354;2023-06-05T03:29:29;12.10;;;6.88;;
77597;SDS011;66756;42.774;23.354;2023-06-05T03:31:55;11.65;;;7.32;;
77597;SDS011;66756;42.774;23.354;2023-06-05T03:34:21;10.95;;;6.70;;
77597;SDS011;66756;42.774;23.354;2023-06-05T03:36:50;11.48;;;7.22;;
77597;SDS011;66756;42.774;23.354;2023-06-05T03:39:16;12.38;;;6.13;;
77597;SDS011;66756;42.774;23.354;2023-06-05T03:41:42;11.88;;;6.85;;
77597;SDS011;66756;42.774;23.354;2023-06-05T03:44:08;12.57;;;6.85;;
77597;SDS011;66756;42.774;23.354;2023-06-05T03:46:34;9.13;;;6.70;;
77597;SDS011;66756;42.774;23.354;2023-06-05T03:49:02;8.18;;;6.30;;
77597;SDS011;66756;42.774;23.354;2023-06-05T03:51:33;8.68;;;4.95;;
77597;SDS011;66756;42.774;23.354;2023-06-05T03:54:01;9.93;;;6.53;;
77597;SDS011;66756;42.774;23.354;2023-06-05T03:56:28;10.10;;;7.03;;
77597;SDS011;66756;42.774;23.354;2023-06-05T03:58:59;8.45;;;5.30;;
77597;SDS011;66756;42.774;23.354;2023-06-05T04:04:09;11.30;;;5.57;;
77597;SDS011;66756;42.774;23.354;2023-06-05T04:06:35;9.43;;;7.68;;
77597;SDS011;66756;42.774;23.354;2023-06-05T04:09:02;11.80;;;7.72;;
77597;SDS011;66756;42.774;23.354;2023-06-05T04:11:35;9.93;;;6.80;;
77597;SDS011;66756;42.774;23.354;2023-06-05T04:14:01;8.82;;;6.80;;
77597;SDS011;66756;42.774;23.354;2023-06-05T04:16:27;8.68;;;7.78;;
77597;SDS011;66756;42.774;23.354;2023-06-05T04:18:54;10.30;;;8.15;;
77597;SDS011;66756;42.774;23.354;2023-06-05T04:21:20;10.98;;;7.78;;
77597;SDS011;66756;42.774;23.354;2023-06-05T04:23:46;10.57;;;7.65;;
77597;SDS011;66756;42.774;23.354;2023-06-05T04:26:12;9.25;;;6.95;;
77597;SDS011;66756;42.774;23.354;2023-06-05T04:28:40;14.25;;;8.15;;
77597;SDS011;66756;42.774;23.354;2023-06-05T04:31:07;11.02;;;7.88;;
77597;SDS011;66756;42.774;23.354;2023-06-05T04:33:33;9.57;;;7.88;;
77597;SDS011;66756;42.774;23.354;2023-06-05T04:35:59;10.30;;;8.45;;
77597;SDS011;66756;42.774;23.354;2023-06-05T04:38:26;11.00;;;8.98;;
77597;SDS011;66756;42.774;23.354;2023-06-05T04:40:53;10.50;;;8.57;;
77597;SDS011;66756;42.774;23.354;2023-06-05T04:43:19;11.30;;;9.27;;
77597;SDS011;66756;42.774;23.354;2023-06-05T04:45:47;10.75;;;8.82;;
77597;SDS011;66756;42.774;23.354;2023-06-05T04:48:13;10.95;;;9.32;;
77597;SDS011;66756;42.774;23.354;2023-06-05T04:50:39;11.73;;;9.30;;
77597;SDS011;66756;42.774;23.354;2023-06-05T04:53:07;11.23;;;8.45;;
77597;SDS011;66756;42.774;23.354;2023-06-05T04:55:33;11.68;;;8.57;;
77597;SDS011;66756;42.774;23.354;2023-06-05T04:57:59;9.75;;;8.10;;
77597;SDS011;66756;42.774;23.354;2023-06-05T05:00:25;11.93;;;9.65;;
77597;SDS011;66756;42.774;23.354;2023-06-05T05:02:52;14.20;;;10.02;;
77597;SDS011;66756;42.774;23.354;2023-06-05T05:05:19;11.52;;;9.48;;
77597;SDS011;66756;42.774;23.354;2023-06-05T05:07:45;10.23;;;8.07;;
77597;SDS011;66756;42.774;23.354;2023-06-05T05:10:11;9.45;;;7.45;;
77597;SDS011;66756;42.774;23.354;2023-06-05T05:12:37;10.02;;;8.00;;
77597;SDS011;66756;42.774;23.354;2023-06-05T05:15:04;12.98;;;8.55;;
77597;SDS011;66756;42.774;23.354;2023-06-05T05:17:30;9.57;;;7.78;;
77597;SDS011;66756;42.774;23.354;2023-06-05T05:19:56;8.95;;;5.63;;
77597;SDS011;66756;42.774;23.354;2023-06-05T05:22:23;9.70;;;7.95;;
77597;SDS011;66756;42.774;23.354;2023-06-05T05:24:49;9.35;;;8.35;;
77597;SDS011;66756;42.774;23.354;2023-06-05T05:27:16;10.60;;;7.32;;
77597;SDS011;66756;42.774;23.354;2023-06-05T05:29:42;11.43;;;9.65;;
77597;SDS011;66756;42.774;23.354;2023-06-05T05:32:08;9.93;;;8.70;;
77597;SDS011;66756;42.774;23.354;2023-06-05T05:34:34;11.20;;;9.10;;
77597;SDS011;66756;42.774;23.354;2023-06-05T05:37:00;10.32;;;9.20;;
77597;SDS011;66756;42.774;23.354;2023-06-05T05:39:26;8.45;;;7.55;;
77597;SDS011;66756;42.774;23.354;2023-06-05T05:41:52;11.25;;;9.13;;
77597;SDS011;66756;42.774;23.354;2023-06-05T05:44:18;10.43;;;9.38;;
77597;SDS011;66756;42.774;23.354;2023-06-05T05:46:47;12.23;;;9.27;;
77597;SDS011;66756;42.774;23.354;2023-06-05T05:49:13;11.77;;;10.10;;
77597;SDS011;66756;42.774;23.354;2023-06-05T05:51:40;12.70;;;10.18;;
77597;SDS011;66756;42.774;23.354;2023-06-05T05:54:06;11.27;;;9.35;;
77597;SDS011;66756;42.774;23.354;2023-06-05T05:56:32;10.02;;;8.75;;
77597;SDS011;66756;42.774;23.354;2023-06-05T05:58:59;12.90;;;10.32;;
77597;SDS011;66756;42.774;23.354;2023-06-05T06:01:25;10.60;;;8.90;;
77597;SDS011;66756;42.774;23.354;2023-06-05T06:03:53;15.70;;;9.43;;
77597;SDS011;66756;42.774;23.354;2023-06-05T06:06:19;13.52;;;9.95;;
77597;SDS011;66756;42.774;23.354;2023-06-05T06:08:45;11.50;;;10.05;;
77597;SDS011;66756;42.774;23.354;2023-06-05T06:11:11;12.43;;;9.23;;
77597;SDS011;66756;42.774;23.354;2023-06-05T06:13:38;11.85;;;9.38;;
77597;SDS011;66756;42.774;23.354;2023-06-05T06:16:04;12.48;;;9.23;;
77597;SDS011;66756;42.774;23.354;2023-06-05T06:18:30;11.73;;;10.18;;
77597;SDS011;66756;42.774;23.354;2023-06-05T06:20:56;14.80;;;11.27;;
77597;SDS011;66756;42.774;23.354;2023-06-05T06:23:23;12.82;;;11.48;;
77597;SDS011;66756;42.774;23.354;2023-06-05T06:25:49;12.25;;;10.30;;
77597;SDS011;66756;42.774;23.354;2023-06-05T06:28:16;12.40;;;10.55;;
77597;SDS011;66756;42.774;23.354;2023-06-05T06:30:44;11.73;;;9.55;;
77597;SDS011;66756;42.774;23.354;2023-06-05T06:33:10;12.02;;;9.93;;
77597;SDS011;66756;42.774;23.354;2023-06-05T06:35:36;13.23;;;10.98;;
77597;SDS011;66756;42.774;23.354;2023-06-05T06:38:03;11.00;;;9.88;;
77597;SDS011;66756;42.774;23.354;2023-06-05T06:40:29;11.57;;;10.02;;
77597;SDS011;66756;42.774;23.354;2023-06-05T06:42:55;13.10;;;10.35;;
77597;SDS011;66756;42.774;23.354;2023-06-05T06:45:21;13.88;;;9.57;;
77597;SDS011;66756;42.774;23.354;2023-06-05T06:47:47;11.90;;;8.88;;
77597;SDS011;66756;42.774;23.354;2023-06-05T06:50:13;15.38;;;11.07;;
77597;SDS011;66756;42.774;23.354;2023-06-05T06:52:39;14.75;;;11.13;;
77597;SDS011;66756;42.774;23.354;2023-06-05T06:55:06;13.40;;;10.50;;
77597;SDS011;66756;42.774;23.354;2023-06-05T06:57:32;12.73;;;10.15;;
77597;SDS011;66756;42.774;23.354;2023-06-05T06:59:58;11.95;;;9.65;;
77597;SDS011;66756;42.774;23.354;2023-06-05T07:02:24;13.65;;;10.52;;
77597;SDS011;66756;42.774;23.354;2023-06-05T07:04:51;15.40;;;10.55;;
77597;SDS011;66756;42.774;23.354;2023-06-05T07:07:18;13.18;;;10.13;;
77597;SDS011;66756;42.774;23.354;2023-06-05T07:09:48;12.57;;;10.73;;
77597;SDS011;66756;42.774;23.354;2023-06-05T07:12:14;11.00;;;9.30;;
77597;SDS011;66756;42.774;23.354;2023-06-05T07:14:42;12.90;;;8.88;;
77597;SDS011;66756;42.774;23.354;2023-06-05T07:17:08;13.40;;;10.05;;
77597;SDS011;66756;42.774;23.354;2023-06-05T07:19:35;12.88;;;9.15;;
77597;SDS011;66756;42.774;23.354;2023-06-05T07:22:04;14.07;;;10.90;;
77597;SDS011;66756;42.774;23.354;2023-06-05T07:24:31;14.77;;;11.40;;
77597;SDS011;66756;42.774;23.354;2023-06-05T07:26:58;12.20;;;10.20;;
77597;SDS011;66756;42.774;23.354;2023-06-05T07:29:24;15.27;;;11.60;;
77597;SDS011;66756;42.774;23.354;2023-06-05T07:31:51;13.15;;;8.95;;
77597;SDS011;66756;42.774;23.354;2023-06-05T07:34:17;11.80;;;8.35;;
77597;SDS011;66756;42.774;23.354;2023-06-05T07:36:44;12.00;;;9.35;;
77597;SDS011;66756;42.774;23.354;2023-06-05T07:39:10;13.35;;;9.38;;
77597;SDS011;66756;42.774;23.354;2023-06-05T07:41:37;14.82;;;10.52;;
77597;SDS011;66756;42.774;23.354;2023-06-05T07:44:04;14.57;;;9.52;;
77597;SDS011;66756;42.774;23.354;2023-06-05T07:46:30;16.13;;;10.15;;
77597;SDS011;66756;42.774;23.354;2023-06-05T07:48:56;12.70;;;7.70;;
77597;SDS011;66756;42.774;23.354;2023-06-05T07:51:22;12.25;;;10.02;;
77597;SDS011;66756;42.774;23.354;2023-06-05T07:53:50;13.35;;;9.55;;
77597;SDS011;66756;42.774;23.354;2023-06-05T07:56:16;10.68;;;8.82;;
77597;SDS011;66756;42.774;23.354;2023-06-05T07:58:42;13.50;;;9.48;;
77597;SDS011;66756;42.774;23.354;2023-06-05T08:01:09;14.02;;;10.20;;
77597;SDS011;66756;42.774;23.354;2023-06-05T08:03:37;11.35;;;9.55;;
77597;SDS011;66756;42.774;23.354;2023-06-05T08:06:03;11.27;;;9.10;;
77597;SDS011;66756;42.774;23.354;2023-06-05T08:08:29;12.60;;;10.18;;
77597;SDS011;66756;42.774;23.354;2023-06-05T08:10:56;12.25;;;10.02;;
77597;SDS011;66756;42.774;23.354;2023-06-05T08:13:22;13.52;;;8.98;;
77597;SDS011;66756;42.774;23.354;2023-06-05T08:15:48;13.10;;;8.60;;
77597;SDS011;66756;42.774;23.354;2023-06-05T08:18:14;13.45;;;9.00;;
77597;SDS011;66756;42.774;23.354;2023-06-05T08:20:41;14.25;;;11.27;;
77597;SDS011;66756;42.774;23.354;2023-06-05T08:23:07;12.93;;;9.32;;
77597;SDS011;66756;42.774;23.354;2023-06-05T08:25:33;13.90;;;10.48;;
77597;SDS011;66756;42.774;23.354;2023-06-05T08:28:00;11.93;;;9.48;;
77597;SDS011;66756;42.774;23.354;2023-06-05T08:30:26;11.63;;;7.47;;
77597;SDS011;66756;42.774;23.354;2023-06-05T08:32:52;12.82;;;9.93;;
77597;SDS011;66756;42.774;23.354;2023-06-05T08:35:18;11.48;;;8.60;;
77597;SDS011;66756;42.774;23.354;2023-06-05T08:37:44;13.48;;;10.15;;
77597;SDS011;66756;42.774;23.354;2023-06-05T08:40:10;11.63;;;8.75;;
77597;SDS011;66756;42.774;23.354;2023-06-05T08:42:37;11.85;;;9.07;;
77597;SDS011;66756;42.774;23.354;2023-06-05T08:45:04;11.60;;;9.18;;
77597;SDS011;66756;42.774;23.354;2023-06-05T08:47:31;11.73;;;8.25;;
77597;SDS011;66756;42.774;23.354;2023-06-05T08:49:57;11.02;;;8.40;;
77597;SDS011;66756;42.774;23.354;2023-06-05T08:52:23;9.02;;;7.78;;
77597;SDS011;66756;42.774;23.354;2023-06-05T08:54:49;9.60;;;7.43;;
77597;SDS011;66756;42.774;23.354;2023-06-05T08:57:15;11.57;;;8.27;;
77597;SDS011;66756;42.774;23.354;2023-06-05T08:59:42;10.10;;;7.05;;
77597;SDS011;66756;42.774;23.354;2023-06-05T09:02:09;9.95;;;8.68;;
77597;SDS011;66756;42.774;23.354;2023-06-05T09:04:35;9.65;;;8.27;;
77597;SDS011;66756;42.774;23.354;2023-06-05T09:07:02;11.73;;;7.70;;
77597;SDS011;66756;42.774;23.354;2023-06-05T09:09:29;9.68;;;7.90;;
77597;SDS011;66756;42.774;23.354;2023-06-05T09:12:03;9.73;;;7.90;;
77597;SDS011;66756;42.774;23.354;2023-06-05T09:14:30;11.25;;;7.88;;
77597;SDS011;66756;42.774;23.354;2023-06-05T09:16:56;11.93;;;9.55;;
77597;SDS011;66756;42.774;23.354;2023-06-05T09:19:23;10.40;;;8.15;;
77597;SDS011;66756;42.774;23.354;2023-06-05T09:21:53;10.88;;;7.30;;
77597;SDS011;66756;42.774;23.354;2023-06-05T09:24:20;10.73;;;7.95;;
77597;SDS011;66756;42.774;23.354;2023-06-05T09:29:22;11.55;;;7.82;;
77597;SDS011;66756;42.774;23.354;2023-06-05T09:31:50;10.05;;;7.80;;
77597;SDS011;66756;42.774;23.354;2023-06-05T09:36:51;11.57;;;7.63;;
77597;SDS011;66756;42.774;23.354;2023-06-05T09:39:19;8.73;;;6.35;;
77597;SDS011;66756;42.774;23.354;2023-06-05T09:41:46;10.15;;;5.75;;
77597;SDS011;66756;42.774;23.354;2023-06-05T09:44:14;10.93;;;7.65;;
77597;SDS011;66756;42.774;23.354;2023-06-05T09:46:50;12.18;;;8.23;;
77597;SDS011;66756;42.774;23.354;2023-06-05T09:49:17;10.13;;;7.50;;
77597;SDS011;66756;42.774;23.354;2023-06-05T09:51:43;9.48;;;8.35;;
77597;SDS011;66756;42.774;23.354;2023-06-05T09:54:11;9.70;;;7.38;;
77597;SDS011;66756;42.774;23.354;2023-06-05T09:56:39;8.32;;;6.85;;
77597;SDS011;66756;42.774;23.354;2023-06-05T09:59:08;9.68;;;7.43;;
77597;SDS011;66756;42.774;23.354;2023-06-05T10:01:39;7.93;;;6.82;;
77597;SDS011;66756;42.774;23.354;2023-06-05T10:04:09;9.00;;;7.63;;
77597;SDS011;66756;42.774;23.354;2023-06-05T10:06:35;10.93;;;5.70;;
77597;SDS011;66756;42.774;23.354;2023-06-05T10:09:02;8.20;;;6.82;;
77597;SDS011;66756;42.774;23.354;2023-06-05T10:11:28;9.60;;;7.65;;
77597;SDS011;66756;42.774;23.354;2023-06-05T10:13:55;11.27;;;5.78;;
77597;SDS011;66756;42.774;23.354;2023-06-05T10:16:25;10.10;;;7.13;;
77597;SDS011;66756;42.774;23.354;2023-06-05T10:18:53;9.32;;;7.57;;
77597;SDS011;66756;42.774;23.354;2023-06-05T10:21:19;10.38;;;8.95;;
77597;SDS011;66756;42.774;23.354;2023-06-05T10:23:48;8.60;;;6.88;;
77597;SDS011;66756;42.774;23.354;2023-06-05T10:26:34;11.10;;;8.10;;
77597;SDS011;66756;42.774;23.354;2023-06-05T10:29:11;9.00;;;6.32;;
77597;SDS011;66756;42.774;23.354;2023-06-05T10:31:47;9.00;;;6.82;;
77597;SDS011;66756;42.774;23.354;2023-06-05T10:39:47;7.38;;;6.45;;
77597;SDS011;66756;42.774;23.354;2023-06-05T10:42:21;7.97;;;6.80;;
77597;SDS011;66756;42.774;23.354;2023-06-05T10:44:48;7.45;;;6.55;;
77597;SDS011;66756;42.774;23.354;2023-06-05T10:47:47;7.50;;;6.80;;
77597;SDS011;66756;42.774;23.354;2023-06-05T10:52:42;7.35;;;5.90;;
77597;SDS011;66756;42.774;23.354;2023-06-05T10:55:08;6.70;;;6.00;;
77597;SDS011;66756;42.774;23.354;2023-06-05T11:00:20;9.40;;;6.55;;
77597;SDS011;66756;42.774;23.354;2023-06-05T11:02:47;6.82;;;5.93;;
77597;SDS011;66756;42.774;23.354;2023-06-05T11:05:14;7.63;;;6.93;;
77597;SDS011;66756;42.774;23.354;2023-06-05T11:07:42;7.68;;;5.95;;
77597;SDS011;66756;42.774;23.354;2023-06-05T11:15:13;6.18;;;5.60;;
77597;SDS011;66756;42.774;23.354;2023-06-05T11:17:46;6.95;;;6.22;;
77597;SDS011;66756;42.774;23.354;2023-06-05T11:27:50;7.32;;;6.22;;
77597;SDS011;66756;42.774;23.354;2023-06-05T11:30:18;6.68;;;5.05;;
77597;SDS011;66756;42.774;23.354;2023-06-05T11:32:44;6.55;;;4.93;;
77597;SDS011;66756;42.774;23.354;2023-06-05T11:35:10;5.32;;;4.78;;
77597;SDS011;66756;42.774;23.354;2023-06-05T11:37:37;9.73;;;5.50;;
77597;SDS011;66756;42.774;23.354;2023-06-05T11:40:05;8.27;;;5.22;;
77597;SDS011;66756;42.774;23.354;2023-06-05T11:42:41;7.03;;;4.97;;
77597;SDS011;66756;42.774;23.354;2023-06-05T11:47:36;5.57;;;4.93;;
77597;SDS011;66756;42.774;23.354;2023-06-05T11:50:09;7.55;;;6.32;;
77597;SDS011;66756;42.774;23.354;2023-06-05T11:52:35;6.18;;;5.25;;
77597;SDS011;66756;42.774;23.354;2023-06-05T11:57:43;4.43;;;2.88;;
77597;SDS011;66756;42.774;23.354;2023-06-05T12:00:10;4.68;;;3.22;;
77597;SDS011;66756;42.774;23.354;2023-06-05T12:02:37;5.50;;;4.05;;
77597;SDS011;66756;42.774;23.354;2023-06-05T12:05:06;7.15;;;4.22;;
77597;SDS011;66756;42.774;23.354;2023-06-05T12:07:35;8.07;;;4.85;;
77597;SDS011;66756;42.774;23.354;2023-06-05T12:10:09;6.28;;;5.43;;
77597;SDS011;66756;42.774;23.354;2023-06-05T12:12:35;6.55;;;5.22;;
77597;SDS011;66756;42.774;23.354;2023-06-05T12:15:17;5.50;;;4.97;;
77597;SDS011;66756;42.774;23.354;2023-06-05T12:17:50;5.30;;;4.72;;
77597;SDS011;66756;42.774;23.354;2023-06-05T12:20:16;7.05;;;4.78;;
77597;SDS011;66756;42.774;23.354;2023-06-05T12:22:42;5.07;;;4.68;;
77597;SDS011;66756;42.774;23.354;2023-06-05T12:25:16;5.40;;;4.70;;
77597;SDS011;66756;42.774;23.354;2023-06-05T12:27:42;5.20;;;4.65;;
77597;SDS011;66756;42.774;23.354;2023-06-05T12:30:10;6.47;;;5.30;;
77597;SDS011;66756;42.774;23.354;2023-06-05T12:32:36;5.68;;;5.18;;
77597;SDS011;66756;42.774;23.354;2023-06-05T12:35:04;5.32;;;4.93;;
77597;SDS011;66756;42.774;23.354;2023-06-05T12:37:32;6.63;;;5.88;;
77597;SDS011;66756;42.774;23.354;2023-06-05T12:40:07;5.28;;;4.68;;
77597;SDS011;66756;42.774;23.354;2023-06-05T12:42:36;5.55;;;5.05;;
77597;SDS011;66756;42.774;23.354;2023-06-05T12:45:03;5.78;;;4.95;;
77597;SDS011;66756;42.774;23.354;2023-06-05T12:47:29;5.82;;;4.95;;
77597;SDS011;66756;42.774;23.354;2023-06-05T12:49:56;5.07;;;4.57;;
77597;SDS011;66756;42.774;23.354;2023-06-05T12:52:23;6.07;;;5.10;;
77597;SDS011;66756;42.774;23.354;2023-06-05T12:54:53;5.53;;;4.95;;
77597;SDS011;66756;42.774;23.354;2023-06-05T12:57:19;5.25;;;4.75;;
77597;SDS011;66756;42.774;23.354;2023-06-05T12:59:48;5.63;;;4.68;;
77597;SDS011;66756;42.774;23.354;2023-06-05T13:02:15;5.78;;;4.55;;
77597;SDS011;66756;42.774;23.354;2023-06-05T13:04:41;5.75;;;4.68;;
77597;SDS011;66756;42.774;23.354;2023-06-05T13:07:08;8.48;;;5.07;;
77597;SDS011;66756;42.774;23.354;2023-06-05T13:09:36;5.50;;;3.72;;
77597;SDS011;66756;42.774;23.354;2023-06-05T13:12:02;5.15;;;4.75;;
77597;SDS011;66756;42.774;23.354;2023-06-05T13:14:32;7.88;;;4.53;;
77597;SDS011;66756;42.774;23.354;2023-06-05T13:16:59;6.70;;;4.60;;
77597;SDS011;66756;42.774;23.354;2023-06-05T13:19:25;4.25;;;3.33;;
77597;SDS011;66756;42.774;23.354;2023-06-05T13:21:51;5.15;;;4.65;;
77597;SDS011;66756;42.774;23.354;2023-06-05T13:24:17;5.80;;;5.20;;
77597;SDS011;66756;42.774;23.354;2023-06-05T13:26:43;5.70;;;5.20;;
77597;SDS011;66756;42.774;23.354;2023-06-05T13:29:12;5.30;;;4.70;;
77597;SDS011;66756;42.774;23.354;2023-06-05T13:31:38;5.28;;;4.85;;
77597;SDS011;66756;42.774;23.354;2023-06-05T13:34:04;5.13;;;4.63;;
77597;SDS011;66756;42.774;23.354;2023-06-05T13:36:30;6.93;;;5.43;;
77597;SDS011;66756;42.774;23.354;2023-06-05T13:38:56;5.40;;;3.30;;
77597;SDS011;66756;42.774;23.354;2023-06-05T13:41:22;5.00;;;4.53;;
77597;SDS011;66756;42.774;23.354;2023-06-05T13:43:49;5.93;;;5.35;;
77597;SDS011;66756;42.774;23.354;2023-06-05T13:46:15;5.57;;;5.10;;
77597;SDS011;66756;42.774;23.354;2023-06-05T13:48:41;6.05;;;4.82;;
77597;SDS011;66756;42.774;23.354;2023-06-05T13:51:07;5.80;;;5.03;;
77597;SDS011;66756;42.774;23.354;2023-06-05T13:53:33;5.72;;;3.75;;
77597;SDS011;66756;42.774;23.354;2023-06-05T13:56:05;6.60;;;4.93;;
77597;SDS011;66756;42.774;23.354;2023-06-05T13:58:32;6.05;;;4.85;;
77597;SDS011;66756;42.774;23.354;2023-06-05T14:00:58;4.90;;;4.40;;
77597;SDS011;66756;42.774;23.354;2023-06-05T14:03:25;6.72;;;5.97;;
77597;SDS011;66756;42.774;23.354;2023-06-05T14:05:51;7.10;;;6.50;;
77597;SDS011;66756;42.774;23.354;2023-06-05T14:08:17;6.75;;;5.10;;
77597;SDS011;66756;42.774;23.354;2023-06-05T14:10:44;5.75;;;4.90;;
77597;SDS011;66756;42.774;23.354;2023-06-05T14:13:10;5.80;;;4.68;;
77597;SDS011;66756;42.774;23.354;2023-06-05T14:15:36;6.40;;;4.40;;
77597;SDS011;66756;42.774;23.354;2023-06-05T14:18:03;5.53;;;5.00;;
77597;SDS011;66756;42.774;23.354;2023-06-05T14:20:29;5.38;;;4.78;;
77597;SDS011;66756;42.774;23.354;2023-06-05T14:22:56;6.95;;;4.75;;
77597;SDS011;66756;42.774;23.354;2023-06-05T14:25:22;6.47;;;4.38;;
77597;SDS011;66756;42.774;23.354;2023-06-05T14:27:50;6.13;;;5.30;;
77597;SDS011;66756;42.774;23.354;2023-06-05T14:30:17;6.13;;;5.53;;
77597;SDS011;66756;42.774;23.354;2023-06-05T14:32:43;6.57;;;5.18;;
77597;SDS011;66756;42.774;23.354;2023-06-05T14:35:10;4.53;;;4.13;;
77597;SDS011;66756;42.774;23.354;2023-06-05T14:37:36;5.72;;;4.88;;
77597;SDS011;66756;42.774;23.354;2023-06-05T14:40:02;5.10;;;4.60;;
77597;SDS011;66756;42.774;23.354;2023-06-05T14:42:29;5.65;;;5.15;;
77597;SDS011;66756;42.774;23.354;2023-06-05T14:44:55;5.25;;;4.75;;
77597;SDS011;66756;42.774;23.354;2023-06-05T14:47:21;6.15;;;5.05;;
77597;SDS011;66756;42.774;23.354;2023-06-05T14:49:48;5.35;;;4.40;;
77597;SDS011;66756;42.774;23.354;2023-06-05T14:52:14;5.40;;;4.57;;
77597;SDS011;66756;42.774;23.354;2023-06-05T14:54:41;4.28;;;3.10;;
77597;SDS011;66756;42.774;23.354;2023-06-05T14:57:07;5.53;;;4.55;;
77597;SDS011;66756;42.774;23.354;2023-06-05T14:59:33;4.30;;;3.90;;
77597;SDS011;66756;42.774;23.354;2023-06-05T15:01:59;5.05;;;4.65;;
77597;SDS011;66756;42.774;23.354;2023-06-05T15:04:25;6.10;;;4.88;;
77597;SDS011;66756;42.774;23.354;2023-06-05T15:06:53;4.60;;;4.20;;
77597;SDS011;66756;42.774;23.354;2023-06-05T15:09:19;5.07;;;4.50;;